sensor_id;sensor_type;location;lat;lon;timestamp;pressure;altitude;pressure_sealevel;temperature;humidity
47240;BME280;32978;53.586;10.052;2024-01-27T00:03:14;102722.22;;;4.60;100.00
47240;BME280;32978;53.586;10.052;2024-01-27T00:08:10;102719.03;;;4.63;100.00
47240;BME280;32978;53.586;10.052;2024-01-27T00:13:07;102717.97;;;4.64;100.00
47240;BME280;32978;53.586;10.052;2024-01-27T00:18:03;102722.22;;;4.60;100.00
47240;BME280;32978;53.586;10.052;2024-01-27T00:23:00;102718.91;;;4.58;100.00
47240;BME280;32978;53.586;10.052;2024-01-27T00:27:57;102720.13;;;4.62;100.00
47240;BME280;32978;53.586;10.052;2024-01-27T00:32:53;102735.00;;;4.71;100.00
47240;BME280;32978;53.586;10.052;2024-01-27T00:37:50;102729.34;;;4.73;100.00
47240;BME280;32978;53.586;10.052;2024-01-27T00:42:46;102736.16;;;4.75;100.00
47240;BME280;32978;53.586;10.052;2024-01-27T00:47:43;102747.63;;;4.77;100.00
47240;BME280;32978;53.586;10.052;2024-01-27T00:52:40;102749.28;;;4.78;100.00
47240;BME280;32978;53.586;10.052;2024-01-27T00:57:37;102760.72;;;4.80;100.00
47240;BME280;32978;53.586;10.052;2024-01-27T01:02:35;102759.19;;;4.84;100.00
47240;BME280;32978;53.586;10.052;2024-01-27T01:07:31;102769.00;;;4.85;100.00
47240;BME280;32978;53.586;10.052;2024-01-27T01:12:28;102770.63;;;4.87;100.00
47240;BME280;32978;53.586;10.052;2024-01-27T01:17:24;102763.56;;;4.85;100.00
47240;BME280;32978;53.586;10.052;2024-01-27T01:22:21;102770.63;;;4.87;100.00
47240;BME280;32978;53.586;10.052;2024-01-27T01:27:17;102777.72;;;4.88;100.00
47240;BME280;32978;53.586;10.052;2024-01-27T01:32:15;102784.44;;;4.85;100.00
47240;BME280;32978;53.586;10.052;2024-01-27T01:37:12;102791.84;;;4.90;100.00
47240;BME280;32978;53.586;10.052;2024-01-27T01:42:09;102796.03;;;4.92;100.00
47240;BME280;32978;53.586;10.052;2024-01-27T01:47:07;102815.34;;;4.96;100.00
47240;BME280;32978;53.586;10.052;2024-01-27T01:52:04;102825.97;;;4.97;100.00
47240;BME280;32978;53.586;10.052;2024-01-27T01:57:02;102832.22;;;4.98;100.00
47240;BME280;32978;53.586;10.052;2024-01-27T02:01:59;102833.03;;;4.98;100.00
47240;BME280;32978;53.586;10.052;2024-01-27T02:06:56;102842.47;;;4.96;100.00
47240;BME280;32978;53.586;10.052;2024-01-27T02:11:52;102852.69;;;4.94;100.00
47240;BME280;32978;53.586;10.052;2024-01-27T02:16:49;102845.63;;;4.93;100.00
47240;BME280;32978;53.586;10.052;2024-01-27T02:21:45;102857.22;;;5.00;100.00
47240;BME280;32978;53.586;10.052;2024-01-27T02:26:42;102850.59;;;4.96;100.00
47240;BME280;32978;53.586;10.052;2024-01-27T02:31:38;102855.47;;;5.05;100.00
47240;BME280;32978;53.586;10.052;2024-01-27T02:36:35;102860.06;;;5.05;100.00
47240;BME280;32978;53.586;10.052;2024-01-27T02:41:32;102870.19;;;4.98;100.00
47240;BME280;32978;53.586;10.052;2024-01-27T02:46:34;102855.53;;;4.99;100.00
47240;BME280;32978;53.586;10.052;2024-01-27T02:51:30;102871.81;;;4.99;100.00
47240;BME280;32978;53.586;10.052;2024-01-27T02:56:27;102871.81;;;4.99;100.00
47240;BME280;32978;53.586;10.052;2024-01-27T03:01:23;102881.03;;;4.98;100.00
47240;BME280;32978;53.586;10.052;2024-01-27T03:06:21;102881.47;;;4.95;100.00
47240;BME280;32978;53.586;10.052;2024-01-27T03:11:17;102879.53;;;4.83;100.00
47240;BME280;32978;53.586;10.052;2024-01-27T03:16:14;102888.25;;;4.85;100.00
47240;BME280;32978;53.586;10.052;2024-01-27T03:21:10;102891.25;;;4.77;100.00
47240;BME280;32978;53.586;10.052;2024-01-27T03:26:07;102884.63;;;4.73;100.00
47240;BME280;32978;53.586;10.052;2024-01-27T03:31:04;102902.09;;;4.77;100.00
47240;BME280;32978;53.586;10.052;2024-01-27T03:36:00;102902.09;;;4.77;100.00
47240;BME280;32978;53.586;10.052;2024-01-27T03:40:57;102900.13;;;4.66;100.00
47240;BME280;32978;53.586;10.052;2024-01-27T03:45:54;102899.69;;;4.69;100.00
47240;BME280;32978;53.586;10.052;2024-01-27T03:50:51;102910.53;;;4.69;100.00
47240;BME280;32978;53.586;10.052;2024-01-27T03:55:47;102914.28;;;4.68;100.00
47240;BME280;32978;53.586;10.052;2024-01-27T04:00:44;102922.41;;;4.68;100.00
47240;BME280;32978;53.586;10.052;2024-01-27T04:05:41;102925.59;;;4.65;100.00
47240;BME280;32978;53.586;10.052;2024-01-27T04:10:38;102931.00;;;4.65;100.00
47240;BME280;32978;53.586;10.052;2024-01-27T04:15:34;102935.97;;;4.68;100.00
47240;BME280;32978;53.586;10.052;2024-01-27T04:20:35;102930.53;;;4.68;100.00
47240;BME280;32978;53.586;10.052;2024-01-27T04:25:31;102930.59;;;4.61;100.00
47240;BME280;32978;53.586;10.052;2024-01-27T04:30:28;102937.47;;;4.64;100.00
47240;BME280;32978;53.586;10.052;2024-01-27T04:35:24;102939.72;;;4.49;100.00
47240;BME280;32978;53.586;10.052;2024-01-27T04:40:20;102944.06;;;4.50;100.00
47240;BME280;32978;53.586;10.052;2024-01-27T04:45:17;102954.91;;;4.50;100.00
47240;BME280;32978;53.586;10.052;2024-01-27T04:50:13;102948.72;;;4.42;100.00
47240;BME280;32978;53.586;10.052;2024-01-27T04:55:10;102954.22;;;4.29;100.00
47240;BME280;32978;53.586;10.052;2024-01-27T05:00:07;102945.94;;;4.24;100.00
47240;BME280;32978;53.586;10.052;2024-01-27T05:05:08;102939.13;;;4.15;100.00
47240;BME280;32978;53.586;10.052;2024-01-27T05:10:05;102945.63;;;4.14;100.00
47240;BME280;32978;53.586;10.052;2024-01-27T05:15:03;102941.06;;;4.08;100.00
47240;BME280;32978;53.586;10.052;2024-01-27T05:19:59;102938.66;;;3.99;100.00
47240;BME280;32978;53.586;10.052;2024-01-27T05:24:57;102927.81;;;3.99;100.00
47240;BME280;32978;53.586;10.052;2024-01-27T05:29:53;102941.06;;;3.76;100.00
47240;BME280;32978;53.586;10.052;2024-01-27T05:34:50;102928.47;;;3.63;100.00
47240;BME280;32978;53.586;10.052;2024-01-27T05:39:46;102942.22;;;3.55;100.00
47240;BME280;32978;53.586;10.052;2024-01-27T05:44:43;102942.28;;;3.48;100.00
47240;BME280;32978;53.586;10.052;2024-01-27T05:49:39;102940.59;;;3.47;100.00
47240;BME280;32978;53.586;10.052;2024-01-27T05:54:36;102941.47;;;3.41;100.00
47240;BME280;32978;53.586;10.052;2024-01-27T05:59:33;102932.31;;;3.42;100.00
47240;BME280;32978;53.586;10.052;2024-01-27T06:04:30;102931.81;;;3.58;100.00
47240;BME280;32978;53.586;10.052;2024-01-27T06:09:27;102944.91;;;3.62;100.00
47240;BME280;32978;53.586;10.052;2024-01-27T06:14:24;102946.41;;;3.57;100.00
47240;BME280;32978;53.586;10.052;2024-01-27T06:19:21;102955.09;;;3.59;100.00
47240;BME280;32978;53.586;10.052;2024-01-27T06:24:17;102957.22;;;3.57;100.00
47240;BME280;32978;53.586;10.052;2024-01-27T06:29:14;102960.75;;;3.58;100.00
47240;BME280;32978;53.586;10.052;2024-01-27T06:34:10;102962.50;;;3.39;100.00
47240;BME280;32978;53.586;10.052;2024-01-27T06:39:07;102960.22;;;3.29;100.00
47240;BME280;32978;53.586;10.052;2024-01-27T06:44:04;102972.31;;;3.27;100.00
47240;BME280;32978;53.586;10.052;2024-01-27T06:49:01;102976.91;;;3.20;100.00
47240;BME280;32978;53.586;10.052;2024-01-27T06:53:58;102984.66;;;3.09;100.00
47240;BME280;32978;53.586;10.052;2024-01-27T06:58:55;102981.13;;;3.02;100.00
47240;BME280;32978;53.586;10.052;2024-01-27T07:03:51;102994.47;;;2.97;100.00
47240;BME280;32978;53.586;10.052;2024-01-27T07:08:49;102999.63;;;2.92;100.00
47240;BME280;32978;53.586;10.052;2024-01-27T07:13:45;102996.13;;;2.85;100.00
47240;BME280;32978;53.586;10.052;2024-01-27T07:18:42;103001.31;;;2.80;100.00
47240;BME280;32978;53.586;10.052;2024-01-27T07:23:39;103005.28;;;2.70;100.00
47240;BME280;32978;53.586;10.052;2024-01-27T07:28:35;102990.13;;;2.69;100.00
47240;BME280;32978;53.586;10.052;2024-01-27T07:33:32;103005.50;;;2.62;100.00
47240;BME280;32978;53.586;10.052;2024-01-27T07:38:29;103017.34;;;2.61;100.00
47240;BME280;32978;53.586;10.052;2024-01-27T07:43:25;103018.59;;;2.59;100.00
47240;BME280;32978;53.586;10.052;2024-01-27T07:48:23;103025.25;;;2.56;100.00
47240;BME280;32978;53.586;10.052;2024-01-27T07:53:20;103044.34;;;2.61;100.00
47240;BME280;32978;53.586;10.052;2024-01-27T07:58:16;103036.25;;;2.61;100.00
47240;BME280;32978;53.586;10.052;2024-01-27T08:03:13;103032.72;;;2.61;100.00
47240;BME280;32978;53.586;10.052;2024-01-27T08:08:09;103035.22;;;2.62;100.00
47240;BME280;32978;53.586;10.052;2024-01-27T08:13:06;103033.13;;;2.64;100.00
47240;BME280;32978;53.586;10.052;2024-01-27T08:18:03;103043.72;;;2.72;100.00
47240;BME280;32978;53.586;10.052;2024-01-27T08:23:00;103051.63;;;2.74;100.00
47240;BME280;32978;53.586;10.052;2024-01-27T08:28:00;103063.47;;;2.80;100.00
47240;BME280;32978;53.586;10.052;2024-01-27T08:32:57;103054.09;;;2.76;100.00
47240;BME280;32978;53.586;10.052;2024-01-27T08:37:53;103057.88;;;2.74;100.00
47240;BME280;32978;53.586;10.052;2024-01-27T08:42:50;103067.81;;;2.81;100.00
47240;BME280;32978;53.586;10.052;2024-01-27T08:47:46;103084.03;;;2.81;100.00
47240;BME280;32978;53.586;10.052;2024-01-27T08:52:43;103101.50;;;2.85;100.00
47240;BME280;32978;53.586;10.052;2024-01-27T08:57:39;103110.84;;;2.89;100.00
47240;BME280;32978;53.586;10.052;2024-01-27T09:02:36;103120.00;;;3.01;100.00
47240;BME280;32978;53.586;10.052;2024-01-27T09:07:33;103122.91;;;3.06;100.00
47240;BME280;32978;53.586;10.052;2024-01-27T09:12:30;103130.81;;;3.14;100.00
47240;BME280;32978;53.586;10.052;2024-01-27T09:17:27;103128.72;;;3.16;100.00
47240;BME280;32978;53.586;10.052;2024-01-27T09:22:24;103143.69;;;3.26;100.00
47240;BME280;32978;53.586;10.052;2024-01-27T09:27:20;103153.28;;;3.28;100.00
47240;BME280;32978;53.586;10.052;2024-01-27T09:32:17;103148.88;;;3.34;100.00
47240;BME280;32978;53.586;10.052;2024-01-27T09:37:13;103165.09;;;3.47;100.00
47240;BME280;32978;53.586;10.052;2024-01-27T09:42:13;103163.03;;;3.56;100.00
47240;BME280;32978;53.586;10.052;2024-01-27T09:47:11;103180.69;;;3.72;100.00
47240;BME280;32978;53.586;10.052;2024-01-27T09:52:07;103190.63;;;3.91;100.00
47240;BME280;32978;53.586;10.052;2024-01-27T09:57:04;103191.44;;;3.98;100.00
47240;BME280;32978;53.586;10.052;2024-01-27T10:02:02;103192.16;;;4.32;100.00
47240;BME280;32978;53.586;10.052;2024-01-27T10:07:00;103199.00;;;4.73;100.00
47240;BME280;32978;53.586;10.052;2024-01-27T10:11:56;103213.94;;;5.21;100.00
47240;BME280;32978;53.586;10.052;2024-01-27T10:16:54;103228.63;;;5.82;100.00
47240;BME280;32978;53.586;10.052;2024-01-27T10:22:00;103228.22;;;6.03;100.00
47240;BME280;32978;53.586;10.052;2024-01-27T10:27:00;103225.34;;;6.17;100.00
47240;BME280;32978;53.586;10.052;2024-01-27T10:32:09;103226.22;;;5.74;100.00
47240;BME280;32978;53.586;10.052;2024-01-27T10:37:06;103248.38;;;6.14;100.00
47240;BME280;32978;53.586;10.052;2024-01-27T10:42:04;103234.72;;;6.02;100.00
47240;BME280;32978;53.586;10.052;2024-01-27T10:47:02;103240.00;;;6.16;100.00
47240;BME280;32978;53.586;10.052;2024-01-27T10:52:01;103243.63;;;5.84;100.00
47240;BME280;32978;53.586;10.052;2024-01-27T10:57:01;103236.31;;;5.66;100.00
47240;BME280;32978;53.586;10.052;2024-01-27T11:01:59;103237.75;;;5.94;100.00
47240;BME280;32978;53.586;10.052;2024-01-27T11:06:56;103241.03;;;6.33;100.00
47240;BME280;32978;53.586;10.052;2024-01-27T11:11:53;103234.72;;;6.39;100.00
47240;BME280;32978;53.586;10.052;2024-01-27T11:16:55;103232.88;;;6.51;100.00
47240;BME280;32978;53.586;10.052;2024-01-27T11:22:02;103234.47;;;6.59;100.00
47240;BME280;32978;53.586;10.052;2024-01-27T11:27:05;103241.63;;;6.53;100.00
47240;BME280;32978;53.586;10.052;2024-01-27T11:32:03;103256.56;;;6.93;100.00
47240;BME280;32978;53.586;10.052;2024-01-27T11:37:10;103251.03;;;7.53;100.00
47240;BME280;32978;53.586;10.052;2024-01-27T11:42:08;103250.63;;;7.26;100.00
47240;BME280;32978;53.586;10.052;2024-01-27T11:47:08;103252.66;;;7.31;100.00
47240;BME280;32978;53.586;10.052;2024-01-27T11:52:09;103251.78;;;7.07;100.00
47240;BME280;32978;53.586;10.052;2024-01-27T11:57:06;103257.72;;;7.15;100.00
47240;BME280;32978;53.586;10.052;2024-01-27T12:02:02;103247.50;;;7.53;100.00
47240;BME280;32978;53.586;10.052;2024-01-27T12:06:59;103258.97;;;7.55;100.00
47240;BME280;32978;53.586;10.052;2024-01-27T12:11:56;103279.72;;;7.14;100.00
47240;BME280;32978;53.586;10.052;2024-01-27T12:16:52;103289.69;;;7.20;100.00
47240;BME280;32978;53.586;10.052;2024-01-27T12:21:50;103288.19;;;7.36;100.00
47240;BME280;32978;53.586;10.052;2024-01-27T12:26:46;103282.69;;;7.90;100.00
47240;BME280;32978;53.586;10.052;2024-01-27T12:31:43;103276.00;;;8.33;100.00
47240;BME280;32978;53.586;10.052;2024-01-27T12:36:41;103268.44;;;8.11;100.00
47240;BME280;32978;53.586;10.052;2024-01-27T12:41:38;103265.13;;;8.09;100.00
47240;BME280;32978;53.586;10.052;2024-01-27T12:46:34;103256.50;;;8.64;100.00
47240;BME280;32978;53.586;10.052;2024-01-27T12:51:31;103261.75;;;8.54;100.00
47240;BME280;32978;53.586;10.052;2024-01-27T12:56:28;103250.78;;;8.14;100.00
47240;BME280;32978;53.586;10.052;2024-01-27T13:01:24;103260.53;;;8.91;100.00
47240;BME280;32978;53.586;10.052;2024-01-27T13:06:21;103244.91;;;9.32;100.00
47240;BME280;32978;53.586;10.052;2024-01-27T13:11:20;103252.16;;;9.60;100.00
47240;BME280;32978;53.586;10.052;2024-01-27T13:16:16;103252.16;;;8.52;100.00
47240;BME280;32978;53.586;10.052;2024-01-27T13:21:13;103258.31;;;8.35;100.00
47240;BME280;32978;53.586;10.052;2024-01-27T13:26:09;103254.06;;;8.39;100.00
47240;BME280;32978;53.586;10.052;2024-01-27T13:31:15;103262.72;;;8.48;100.00
47240;BME280;32978;53.586;10.052;2024-01-27T13:36:11;103262.50;;;8.38;100.00
47240;BME280;32978;53.586;10.052;2024-01-27T13:41:08;103260.88;;;8.66;100.00
47240;BME280;32978;53.586;10.052;2024-01-27T13:46:04;103255.22;;;8.84;100.00
47240;BME280;32978;53.586;10.052;2024-01-27T13:51:01;103258.09;;;9.06;100.00
47240;BME280;32978;53.586;10.052;2024-01-27T13:55:57;103266.63;;;8.81;100.00
47240;BME280;32978;53.586;10.052;2024-01-27T14:00:54;103269.34;;;8.52;100.00
47240;BME280;32978;53.586;10.052;2024-01-27T14:05:50;103270.53;;;8.56;100.00
47240;BME280;32978;53.586;10.052;2024-01-27T14:10:47;103288.09;;;8.25;100.00
47240;BME280;32978;53.586;10.052;2024-01-27T14:15:46;103290.72;;;8.08;100.00
47240;BME280;32978;53.586;10.052;2024-01-27T14:20:43;103283.22;;;8.39;100.00
47240;BME280;32978;53.586;10.052;2024-01-27T14:25:39;103282.66;;;8.13;100.00
47240;BME280;32978;53.586;10.052;2024-01-27T14:30:37;103284.91;;;8.05;100.00
47240;BME280;32978;53.586;10.052;2024-01-27T14:35:36;103283.38;;;7.73;100.00
47240;BME280;32978;53.586;10.052;2024-01-27T14:40:33;103289.97;;;7.54;100.00
47240;BME280;32978;53.586;10.052;2024-01-27T14:45:29;103296.63;;;7.58;100.00
47240;BME280;32978;53.586;10.052;2024-01-27T14:50:26;103310.31;;;7.40;100.00
47240;BME280;32978;53.586;10.052;2024-01-27T14:55:22;103305.66;;;7.28;100.00
47240;BME280;32978;53.586;10.052;2024-01-27T15:00:19;103321.34;;;7.14;100.00
47240;BME280;32978;53.586;10.052;2024-01-27T15:05:16;103302.13;;;6.98;100.00
47240;BME280;32978;53.586;10.052;2024-01-27T15:10:12;103308.19;;;6.81;100.00
47240;BME280;32978;53.586;10.052;2024-01-27T15:15:09;103309.72;;;6.59;100.00
47240;BME280;32978;53.586;10.052;2024-01-27T15:20:06;103307.31;;;6.50;100.00
47240;BME280;32978;53.586;10.052;2024-01-27T15:25:03;103304.91;;;6.42;100.00
47240;BME280;32978;53.586;10.052;2024-01-27T15:30:00;103312.63;;;6.27;100.00
47240;BME280;32978;53.586;10.052;2024-01-27T15:34:56;103314.78;;;6.18;100.00
47240;BME280;32978;53.586;10.052;2024-01-27T15:39:53;103315.72;;;6.05;100.00
47240;BME280;32978;53.586;10.052;2024-01-27T15:44:50;103319.22;;;5.94;100.00
47240;BME280;32978;53.586;10.052;2024-01-27T15:49:46;103320.94;;;5.82;100.00
47240;BME280;32978;53.586;10.052;2024-01-27T15:54:49;103331.19;;;5.80;100.00
47240;BME280;32978;53.586;10.052;2024-01-27T15:59:45;103333.56;;;5.69;100.00
47240;BME280;32978;53.586;10.052;2024-01-27T16:04:42;103341.53;;;5.64;100.00
47240;BME280;32978;53.586;10.052;2024-01-27T16:09:45;103338.66;;;5.59;100.00
47240;BME280;32978;53.586;10.052;2024-01-27T16:14:42;103332.06;;;5.48;100.00
47240;BME280;32978;53.586;10.052;2024-01-27T16:19:39;103335.44;;;5.44;100.00
47240;BME280;32978;53.586;10.052;2024-01-27T16:24:36;103334.97;;;5.47;100.00
47240;BME280;32978;53.586;10.052;2024-01-27T16:29:32;103338.78;;;5.39;100.00
47240;BME280;32978;53.586;10.052;2024-01-27T16:34:29;103336.72;;;5.35;100.00
47240;BME280;32978;53.586;10.052;2024-01-27T16:39:25;103343.44;;;5.32;100.00
47240;BME280;32978;53.586;10.052;2024-01-27T16:44:22;103354.69;;;5.29;100.00
47240;BME280;32978;53.586;10.052;2024-01-27T16:49:19;103354.31;;;5.25;100.00
47240;BME280;32978;53.586;10.052;2024-01-27T16:54:16;103346.00;;;5.20;100.00
47240;BME280;32978;53.586;10.052;2024-01-27T16:59:15;103355.00;;;5.14;100.00
47240;BME280;32978;53.586;10.052;2024-01-27T17:04:11;103347.69;;;5.15;100.00
47240;BME280;32978;53.586;10.052;2024-01-27T17:09:10;103360.88;;;5.11;100.00
47240;BME280;32978;53.586;10.052;2024-01-27T17:14:10;103363.59;;;5.11;100.00
47240;BME280;32978;53.586;10.052;2024-01-27T17:19:07;103351.94;;;5.04;100.00
47240;BME280;32978;53.586;10.052;2024-01-27T17:24:03;103356.13;;;5.00;100.00
47240;BME280;32978;53.586;10.052;2024-01-27T17:29:00;103363.63;;;4.98;100.00
47240;BME280;32978;53.586;10.052;2024-01-27T17:33:58;103367.19;;;4.92;100.00
47240;BME280;32978;53.586;10.052;2024-01-27T17:38:55;103354.06;;;4.89;100.00
47240;BME280;32978;53.586;10.052;2024-01-27T17:43:51;103364.91;;;4.89;100.00
47240;BME280;32978;53.586;10.052;2024-01-27T17:48:48;103357.00;;;4.87;100.00
47240;BME280;32978;53.586;10.052;2024-01-27T17:53:45;103360.56;;;4.88;100.00
47240;BME280;32978;53.586;10.052;2024-01-27T17:58:41;103365.78;;;4.82;100.00
47240;BME280;32978;53.586;10.052;2024-01-27T18:03:38;103359.13;;;4.78;100.00
47240;BME280;32978;53.586;10.052;2024-01-27T18:08:35;103364.56;;;4.78;100.00
47240;BME280;32978;53.586;10.052;2024-01-27T18:13:31;103362.88;;;4.77;100.00
47240;BME280;32978;53.586;10.052;2024-01-27T18:18:28;103366.66;;;4.70;100.00
47240;BME280;32978;53.586;10.052;2024-01-27T18:23:25;103380.41;;;4.68;100.00
47240;BME280;32978;53.586;10.052;2024-01-27T18:28:21;103370.00;;;4.65;100.00
47240;BME280;32978;53.586;10.052;2024-01-27T18:33:17;103376.28;;;4.59;100.00
47240;BME280;32978;53.586;10.052;2024-01-27T18:38:16;103364.19;;;4.55;100.00
47240;BME280;32978;53.586;10.052;2024-01-27T18:43:12;103374.44;;;4.53;100.00
47240;BME280;32978;53.586;10.052;2024-01-27T18:48:09;103371.31;;;4.42;100.00
47240;BME280;32978;53.586;10.052;2024-01-27T18:53:06;103372.75;;;4.38;100.00
47240;BME280;32978;53.586;10.052;2024-01-27T18:58:06;103373.38;;;4.40;100.00
47240;BME280;32978;53.586;10.052;2024-01-27T19:03:08;103371.75;;;4.39;100.00
47240;BME280;32978;53.586;10.052;2024-01-27T19:08:05;103378.81;;;4.40;100.00
47240;BME280;32978;53.586;10.052;2024-01-27T19:13:02;103373.81;;;4.37;100.00
47240;BME280;32978;53.586;10.052;2024-01-27T19:17:59;103388.81;;;4.33;100.00
47240;BME280;32978;53.586;10.052;2024-01-27T19:22:55;103396.75;;;4.28;100.00
47240;BME280;32978;53.586;10.052;2024-01-27T19:27:52;103412.19;;;4.21;100.00
47240;BME280;32978;53.586;10.052;2024-01-27T19:32:49;103407.59;;;4.21;100.00
47240;BME280;32978;53.586;10.052;2024-01-27T19:37:45;103412.59;;;4.18;100.00
47240;BME280;32978;53.586;10.052;2024-01-27T19:42:42;103417.59;;;4.08;100.00
47240;BME280;32978;53.586;10.052;2024-01-27T19:47:42;103425.69;;;4.08;100.00
47240;BME280;32978;53.586;10.052;2024-01-27T19:52:38;103421.75;;;4.04;100.00
47240;BME280;32978;53.586;10.052;2024-01-27T19:57:34;103420.28;;;4.01;100.00
47240;BME280;32978;53.586;10.052;2024-01-27T20:02:31;103418.00;;;3.91;100.00
47240;BME280;32978;53.586;10.052;2024-01-27T20:07:28;103417.34;;;3.89;100.00
47240;BME280;32978;53.586;10.052;2024-01-27T20:12:27;103430.50;;;3.86;100.00
47240;BME280;32978;53.586;10.052;2024-01-27T20:17:24;103415.88;;;3.80;100.00
47240;BME280;32978;53.586;10.052;2024-01-27T20:22:20;103427.16;;;3.90;100.00
47240;BME280;32978;53.586;10.052;2024-01-27T20:27:17;103432.56;;;3.90;100.00
47240;BME280;32978;53.586;10.052;2024-01-27T20:32:14;103430.88;;;3.83;100.00
47240;BME280;32978;53.586;10.052;2024-01-27T20:37:10;103432.13;;;3.80;100.00
47240;BME280;32978;53.586;10.052;2024-01-27T20:42:07;103435.44;;;3.75;100.00
47240;BME280;32978;53.586;10.052;2024-01-27T20:47:05;103430.88;;;3.76;100.00
47240;BME280;32978;53.586;10.052;2024-01-27T20:52:02;103431.31;;;3.79;100.00
47240;BME280;32978;53.586;10.052;2024-01-27T20:56:59;103422.53;;;3.71;100.00
47240;BME280;32978;53.586;10.052;2024-01-27T21:01:55;103437.13;;;3.70;100.00
47240;BME280;32978;53.586;10.052;2024-01-27T21:06:58;103430.44;;;3.66;100.00
47240;BME280;32978;53.586;10.052;2024-01-27T21:11:55;103440.84;;;3.69;100.00
47240;BME280;32978;53.586;10.052;2024-01-27T21:16:51;103442.13;;;3.73;100.00
47240;BME280;32978;53.586;10.052;2024-01-27T21:21:48;103448.78;;;3.77;100.00
47240;BME280;32978;53.586;10.052;2024-01-27T21:26:44;103447.72;;;3.65;100.00
47240;BME280;32978;53.586;10.052;2024-01-27T21:31:41;103434.59;;;3.62;100.00
47240;BME280;32978;53.586;10.052;2024-01-27T21:36:38;103448.13;;;3.62;100.00
47240;BME280;32978;53.586;10.052;2024-01-27T21:41:35;103438.75;;;3.57;100.00
47240;BME280;32978;53.586;10.052;2024-01-27T21:46:31;103429.38;;;3.53;100.00
47240;BME280;32978;53.586;10.052;2024-01-27T21:51:28;103439.16;;;3.54;100.00
47240;BME280;32978;53.586;10.052;2024-01-27T21:56:24;103437.50;;;3.53;100.00
47240;BME280;32978;53.586;10.052;2024-01-27T22:01:21;103437.28;;;3.55;100.00
47240;BME280;32978;53.586;10.052;2024-01-27T22:06:18;103427.66;;;3.46;100.00
47240;BME280;32978;53.586;10.052;2024-01-27T22:11:14;103421.03;;;3.48;100.00
47240;BME280;32978;53.586;10.052;2024-01-27T22:16:11;103424.72;;;3.34;100.00
47240;BME280;32978;53.586;10.052;2024-01-27T22:21:07;103428.44;;;3.26;100.00
47240;BME280;32978;53.586;10.052;2024-01-27T22:26:04;103426.38;;;3.28;100.00
47240;BME280;32978;53.586;10.052;2024-01-27T22:31:01;103426.75;;;3.19;100.00
47240;BME280;32978;53.586;10.052;2024-01-27T22:35:57;103425.69;;;3.13;100.00
47240;BME280;32978;53.586;10.052;2024-01-27T22:40:54;103425.91;;;3.11;100.00
47240;BME280;32978;53.586;10.052;2024-01-27T22:45:50;103418.59;;;3.05;100.00
47240;BME280;32978;53.586;10.052;2024-01-27T22:50:48;103431.00;;;2.93;100.00
47240;BME280;32978;53.586;10.052;2024-01-27T22:55:45;103435.59;;;2.99;100.00
47240;BME280;32978;53.586;10.052;2024-01-27T23:00:41;103432.28;;;2.97;100.00
47240;BME280;32978;53.586;10.052;2024-01-27T23:05:39;103438.44;;;2.84;100.00
47240;BME280;32978;53.586;10.052;2024-01-27T23:10:37;103445.88;;;2.76;100.00
47240;BME280;32978;53.586;10.052;2024-01-27T23:15:35;103444.13;;;2.61;100.00
47240;BME280;32978;53.586;10.052;2024-01-27T23:20:35;103443.72;;;2.64;100.00
47240;BME280;32978;53.586;10.052;2024-01-27T23:25:31;103445.16;;;2.60;100.00
47240;BME280;32978;53.586;10.052;2024-01-27T23:30:28;103438.53;;;2.63;100.00
47240;BME280;32978;53.586;10.052;2024-01-27T23:35:25;103431.66;;;2.60;100.00
47240;BME280;32978;53.586;10.052;2024-01-27T23:40:21;103428.44;;;2.50;100.00
47240;BME280;32978;53.586;10.052;2024-01-27T23:45:19;103429.50;;;2.49;100.00
47240;BME280;32978;53.586;10.052;2024-01-27T23:50:15;103427.03;;;2.54;100.00
47240;BME280;32978;53.586;10.052;2024-01-27T23:55:12;103425.38;;;2.53;100.00
